createdAt,value
2018-12-04T00:00:28.077Z,995.74
2018-12-04T00:01:28.067Z,995.74
2018-12-04T00:02:28.070Z,995.70
2018-12-04T00:03:28.039Z,995.70
2018-12-04T00:04:28.030Z,995.70
2018-12-04T00:05:28.017Z,995.69
2018-12-04T00:06:28.011Z,995.70
2018-12-04T00:07:28.022Z,995.70
2018-12-04T00:08:27.991Z,995.71
2018-12-04T00:09:27.981Z,995.72
2018-12-04T00:10:27.970Z,995.71
2018-12-04T00:11:27.988Z,995.78
2018-12-04T00:12:27.942Z,995.73
2018-12-04T00:13:27.946Z,995.76
2018-12-04T00:14:27.925Z,995.72
2018-12-04T00:15:28.671Z,995.79
2018-12-04T00:16:28.674Z,995.80
2018-12-04T00:17:27.891Z,995.77
2018-12-04T00:18:27.962Z,995.79
2018-12-04T00:19:27.882Z,995.80
2018-12-04T00:20:27.866Z,995.81
2018-12-04T00:21:27.847Z,995.84
2018-12-04T00:22:27.849Z,995.89
2018-12-04T00:23:27.824Z,995.86
2018-12-04T00:24:27.852Z,995.84
2018-12-04T00:25:27.805Z,995.86
2018-12-04T00:26:27.794Z,995.82
2018-12-04T00:27:27.777Z,995.85
2018-12-04T00:28:27.770Z,995.86
2018-12-04T00:29:27.754Z,995.87
2018-12-04T00:30:27.786Z,995.87
2018-12-04T00:31:27.735Z,995.84
2018-12-04T00:32:27.762Z,995.91
2018-12-04T00:45:25.651Z,996.12
2018-12-04T00:45:56.427Z,996.05
2018-12-04T00:46:56.426Z,996.08
2018-12-04T00:47:56.397Z,996.06
2018-12-04T00:48:56.391Z,996.12
2018-12-04T00:49:56.375Z,996.11
2018-12-04T00:50:56.372Z,996.12
2018-12-04T00:51:56.365Z,996.12
2018-12-04T00:52:56.351Z,996.13
2018-12-04T00:53:56.333Z,996.15
2018-12-04T00:54:56.327Z,996.17
2018-12-04T00:55:56.311Z,996.21
2018-12-04T00:56:56.336Z,996.22
2018-12-04T00:57:56.288Z,996.26
2018-12-04T00:58:56.282Z,996.29
2018-12-04T00:59:56.270Z,996.31
2018-12-04T01:00:56.257Z,996.35
2018-12-04T01:01:56.252Z,996.31
2018-12-04T01:02:56.267Z,996.36
2018-12-04T01:03:56.225Z,996.33
2018-12-04T01:04:56.211Z,996.38
2018-12-04T01:05:56.202Z,996.41
2018-12-04T01:06:56.192Z,996.38
2018-12-04T01:07:56.183Z,996.39
2018-12-04T01:08:56.177Z,996.36
2018-12-04T01:09:56.153Z,996.37
2018-12-04T01:10:56.149Z,996.37
2018-12-04T01:11:56.132Z,996.38
2018-12-04T01:12:56.133Z,996.41
2018-12-04T01:13:56.138Z,996.41
2018-12-04T01:14:56.113Z,996.38
2018-12-04T01:15:56.096Z,996.42
2018-12-04T01:16:56.082Z,996.40
2018-12-04T01:17:56.065Z,996.34
2018-12-04T01:18:56.057Z,996.42
2018-12-04T01:19:56.067Z,996.35
2018-12-04T01:20:56.044Z,996.34
2018-12-04T01:21:56.026Z,996.37
2018-12-04T01:22:56.009Z,996.35
2018-12-04T01:23:55.997Z,996.38
2018-12-04T01:24:56.013Z,996.41
2018-12-04T01:25:55.979Z,996.34
2018-12-04T01:26:55.970Z,996.36
2018-12-04T01:27:55.952Z,996.39
2018-12-04T01:28:55.945Z,996.44
2018-12-04T01:29:55.954Z,996.41
2018-12-04T01:30:55.922Z,996.45
2018-12-04T01:31:55.926Z,996.44
2018-12-04T01:32:55.904Z,996.45
2018-12-04T01:33:55.895Z,996.48
2018-12-04T01:34:55.893Z,996.48
2018-12-04T01:35:55.885Z,996.48
2018-12-04T01:36:55.857Z,996.48
2018-12-04T01:37:55.845Z,996.52
2018-12-04T01:38:55.837Z,996.52
2018-12-04T01:39:55.826Z,996.47
2018-12-04T01:40:55.813Z,996.49
2018-12-04T01:41:55.810Z,996.52
2018-12-04T01:42:55.792Z,996.50
2018-12-04T01:43:55.779Z,996.53
2018-12-04T01:44:55.766Z,996.48
2018-12-04T01:45:55.753Z,996.49
2018-12-04T01:46:55.824Z,996.51
2018-12-04T01:47:55.730Z,996.48
2018-12-04T01:48:55.726Z,996.54
2018-12-04T01:49:55.713Z,996.45
2018-12-04T01:50:55.704Z,996.45
2018-12-04T01:51:55.689Z,996.46
2018-12-04T01:52:55.717Z,996.50
2018-12-04T01:53:55.668Z,996.47
2018-12-04T01:54:55.660Z,996.52
2018-12-04T01:55:55.645Z,996.53
2018-12-04T01:56:55.651Z,996.50
2018-12-04T01:57:55.626Z,996.52
2018-12-04T01:58:55.667Z,996.54
2018-12-04T01:59:55.604Z,996.48
2018-12-04T02:00:55.592Z,996.51
2018-12-04T02:01:55.578Z,996.47
2018-12-04T02:02:55.568Z,996.45
2018-12-04T02:03:55.566Z,996.49
2018-12-04T02:04:55.549Z,996.49
2018-12-04T02:05:55.537Z,996.57
2018-12-04T02:06:55.524Z,996.53
2018-12-04T02:07:55.514Z,996.62
2018-12-04T02:08:55.507Z,996.51
2018-12-04T02:09:55.496Z,996.57
2018-12-04T02:10:55.481Z,996.54
2018-12-04T02:11:55.465Z,996.56
2018-12-04T02:12:55.457Z,996.47
2018-12-04T02:13:55.687Z,996.53
2018-12-04T02:14:55.432Z,996.54
2018-12-04T02:15:55.420Z,996.48
2018-12-04T02:16:55.409Z,996.56
2018-12-04T02:17:55.396Z,996.50
2018-12-04T02:18:55.389Z,996.54
2018-12-04T02:19:55.405Z,996.53
2018-12-04T02:20:55.366Z,996.52
2018-12-04T02:21:55.350Z,996.53
2018-12-04T02:22:55.357Z,996.53
2018-12-04T02:23:55.329Z,996.59
2018-12-04T02:24:55.326Z,996.56
2018-12-04T02:25:55.318Z,996.61
2018-12-04T02:26:55.293Z,996.65
2018-12-04T02:27:55.283Z,996.68
2018-12-04T02:28:55.277Z,996.64
2018-12-04T02:29:55.267Z,996.67
2018-12-04T02:30:55.279Z,996.72
2018-12-04T02:31:55.239Z,996.73
2018-12-04T02:32:55.233Z,996.75
2018-12-04T02:33:55.216Z,996.71
2018-12-04T02:34:55.209Z,996.73
2018-12-04T02:35:55.216Z,996.71
2018-12-04T02:36:55.198Z,996.74
2018-12-04T02:37:55.177Z,996.74
2018-12-04T02:38:55.160Z,996.84
2018-12-04T02:39:55.148Z,996.82
2018-12-04T02:40:55.136Z,996.78
2018-12-04T02:41:55.135Z,996.77
2018-12-04T02:42:55.117Z,996.86
2018-12-04T02:43:55.104Z,996.87
2018-12-04T02:44:55.114Z,996.93
2018-12-04T02:45:55.091Z,996.95
2018-12-04T02:46:55.076Z,996.95
2018-12-04T02:47:55.073Z,996.94
2018-12-04T02:48:55.062Z,996.98
2018-12-04T02:49:55.041Z,996.97
2018-12-04T02:50:55.040Z,997.01
2018-12-04T02:51:55.019Z,997.02
2018-12-04T02:52:55.025Z,997.02
2018-12-04T02:53:54.997Z,997.06
2018-12-04T02:54:54.987Z,997.04
2018-12-04T02:55:55.014Z,997.10
2018-12-04T02:56:54.963Z,997.08
2018-12-04T02:57:54.954Z,997.11
2018-12-04T02:58:54.944Z,997.13
2018-12-04T02:59:54.928Z,997.12
2018-12-04T03:00:54.913Z,997.23
2018-12-04T03:01:54.958Z,997.22
2018-12-04T03:02:54.891Z,997.23
2018-12-04T03:03:54.881Z,997.37
2018-12-04T03:04:54.878Z,997.26
2018-12-04T03:05:54.863Z,997.39
2018-12-04T03:06:54.847Z,997.42
2018-12-04T03:07:54.856Z,997.42
2018-12-04T03:08:54.838Z,997.48
2018-12-04T03:09:54.853Z,997.56
2018-12-04T03:10:54.803Z,997.69
2018-12-04T03:11:54.799Z,997.66
2018-12-04T03:12:54.781Z,997.71
2018-12-04T03:13:54.792Z,997.76
2018-12-04T03:14:54.760Z,997.78
2018-12-04T03:15:54.797Z,997.88
2018-12-04T03:16:54.740Z,997.85
2018-12-04T03:17:55.666Z,997.90
2018-12-04T03:18:54.729Z,997.99
2018-12-04T03:19:55.631Z,997.94
2018-12-04T03:20:54.691Z,998.02
2018-12-04T03:21:54.694Z,998.08
2018-12-04T03:22:54.674Z,998.13
2018-12-04T03:23:54.655Z,998.20
2018-12-04T03:24:54.683Z,998.15
2018-12-04T03:25:54.642Z,998.13
2018-12-04T03:26:54.623Z,998.22
2018-12-04T03:27:54.622Z,998.31
2018-12-04T03:28:54.601Z,998.33
2018-12-04T03:29:54.594Z,998.39
2018-12-04T03:30:54.601Z,998.42
2018-12-04T03:31:54.667Z,998.49
2018-12-04T03:32:54.566Z,998.45
2018-12-04T03:33:54.547Z,998.51
2018-12-04T03:34:54.539Z,998.48
2018-12-04T03:35:54.537Z,998.58
2018-12-04T03:36:54.526Z,998.53
2018-12-04T03:37:54.505Z,998.62
2018-12-04T03:38:54.496Z,998.61
2018-12-04T03:39:54.477Z,998.63
2018-12-04T03:40:54.470Z,998.69
2018-12-04T03:41:54.473Z,998.69
2018-12-04T03:42:54.449Z,998.73
2018-12-04T03:43:54.434Z,998.76
2018-12-04T03:44:54.419Z,998.82
2018-12-04T03:45:54.415Z,998.81
2018-12-04T03:46:54.417Z,998.82
2018-12-04T03:47:54.386Z,998.87
2018-12-04T03:48:54.381Z,998.92
2018-12-04T03:49:54.363Z,998.93
2018-12-04T03:50:54.363Z,998.95
2018-12-04T03:51:54.346Z,999.02
2018-12-04T03:52:54.342Z,999.03
2018-12-04T03:53:54.330Z,999.05
2018-12-04T03:54:54.308Z,999.04
2018-12-04T03:55:54.303Z,999.11
2018-12-04T03:56:54.290Z,999.07
2018-12-04T03:57:54.290Z,999.18
2018-12-04T03:58:54.270Z,999.16
2018-12-04T03:59:54.259Z,999.21
2018-12-04T04:00:54.243Z,999.27
2018-12-04T04:01:54.233Z,999.37
2018-12-04T04:02:54.236Z,999.37
2018-12-04T04:03:54.217Z,999.38
2018-12-04T04:04:54.217Z,999.37
2018-12-04T04:05:54.211Z,999.38
2018-12-04T04:06:54.176Z,999.42
2018-12-04T04:07:54.175Z,999.47
2018-12-04T04:08:54.168Z,999.54
2018-12-04T04:09:54.151Z,999.56
2018-12-04T04:10:54.138Z,999.57
2018-12-04T04:11:54.122Z,999.65
2018-12-04T04:12:54.117Z,999.57
2018-12-04T04:13:54.129Z,999.63
2018-12-04T04:14:54.089Z,999.66
2018-12-04T04:15:54.077Z,999.66
2018-12-04T04:16:54.075Z,999.70
2018-12-04T04:17:54.076Z,999.71
2018-12-04T04:18:54.047Z,999.76
2018-12-04T04:19:54.067Z,999.74
2018-12-04T04:20:54.030Z,999.76
2018-12-04T04:21:54.017Z,999.81
2018-12-04T04:22:54.023Z,999.87
2018-12-04T04:23:53.993Z,999.87
2018-12-04T04:24:54.023Z,999.93
2018-12-04T04:25:53.968Z,999.95
2018-12-04T04:26:53.965Z,999.99
2018-12-04T04:27:53.946Z,999.95
2018-12-04T04:28:53.944Z,1000.01
2018-12-04T04:29:53.924Z,999.98
2018-12-04T04:30:53.935Z,1000.13
2018-12-04T04:31:53.904Z,1000.08
2018-12-04T04:32:53.894Z,1000.09
2018-12-04T04:33:53.879Z,1000.13
2018-12-04T04:34:53.880Z,1000.14
2018-12-04T04:35:53.874Z,1000.12
2018-12-04T04:36:53.852Z,1000.19
2018-12-04T04:37:53.842Z,1000.23
2018-12-04T04:38:53.830Z,1000.25
2018-12-04T04:39:53.821Z,1000.30
2018-12-04T04:40:53.821Z,1000.35
2018-12-04T04:41:53.803Z,1000.34
2018-12-04T04:42:53.781Z,1000.40
2018-12-04T04:43:53.775Z,1000.42
2018-12-04T04:44:53.777Z,1000.52
2018-12-04T04:45:53.748Z,1000.46
2018-12-04T04:46:53.756Z,1000.50
2018-12-04T04:47:53.733Z,1000.55
2018-12-04T04:48:53.728Z,1000.54
2018-12-04T04:49:53.705Z,1000.59
2018-12-04T04:50:53.710Z,1000.60
2018-12-04T04:51:53.692Z,1000.57
2018-12-04T04:52:53.670Z,1000.65
2018-12-04T04:53:53.666Z,1000.64
2018-12-04T04:54:53.660Z,1000.61
2018-12-04T04:55:53.644Z,1000.72
2018-12-04T04:56:53.633Z,1000.71
2018-12-04T04:57:53.632Z,1000.78
2018-12-04T04:58:53.604Z,1000.73
2018-12-04T04:59:53.594Z,1000.82
2018-12-04T05:00:53.589Z,1000.88
2018-12-04T05:01:53.576Z,1000.83
2018-12-04T05:02:53.570Z,1000.84
2018-12-04T05:03:53.554Z,1000.84
2018-12-04T05:04:53.541Z,1001.00
2018-12-04T05:05:53.528Z,1000.97
2018-12-04T05:06:53.518Z,1000.99
2018-12-04T05:07:53.518Z,1000.99
2018-12-04T05:08:53.497Z,1001.10
2018-12-04T05:09:53.492Z,1001.10
2018-12-04T05:10:53.483Z,1001.17
2018-12-04T05:11:53.467Z,1001.17
2018-12-04T05:12:53.465Z,1001.19
2018-12-04T05:13:53.453Z,1001.25
2018-12-04T05:14:53.432Z,1001.27
2018-12-04T05:15:53.425Z,1001.21
2018-12-04T05:16:53.410Z,1001.25
2018-12-04T05:17:53.403Z,1001.29
2018-12-04T05:18:53.395Z,1001.29
2018-12-04T05:19:53.384Z,1001.37
2018-12-04T05:20:53.371Z,1001.38
2018-12-04T05:21:53.355Z,1001.46
2018-12-04T05:22:53.351Z,1001.43
2018-12-04T05:23:53.332Z,1001.45
2018-12-04T05:24:53.335Z,1001.56
2018-12-04T05:25:53.307Z,1001.57
2018-12-04T05:26:53.303Z,1001.63
2018-12-04T05:27:53.347Z,1001.65
2018-12-04T05:28:53.282Z,1001.68
2018-12-04T05:29:53.283Z,1001.71
2018-12-04T05:30:53.254Z,1001.76
2018-12-04T05:31:53.244Z,1001.79
2018-12-04T05:32:53.243Z,1001.89
2018-12-04T05:33:53.223Z,1001.93
2018-12-04T05:34:53.216Z,1001.99
2018-12-04T05:35:53.216Z,1002.00
2018-12-04T05:36:53.188Z,1002.00
2018-12-04T05:37:53.180Z,1002.02
2018-12-04T05:38:53.178Z,1002.00
2018-12-04T05:39:53.503Z,1001.99
2018-12-04T05:40:53.243Z,1001.96
2018-12-04T05:41:56.660Z,1002.02
2018-12-04T05:42:53.239Z,1002.10
2018-12-04T05:43:53.122Z,1002.14
2018-12-04T05:44:53.106Z,1002.16
2018-12-04T05:45:53.091Z,1002.13
2018-12-04T05:46:53.092Z,1002.21
2018-12-04T05:47:53.071Z,1002.23
2018-12-04T05:48:53.054Z,1002.29
2018-12-04T05:49:53.043Z,1002.26
2018-12-04T05:50:53.032Z,1002.27
2018-12-04T05:51:53.034Z,1002.28
2018-12-04T05:52:53.015Z,1002.27
2018-12-04T05:53:53.019Z,1002.32
2018-12-04T05:54:53.017Z,1002.33
2018-12-04T05:55:52.987Z,1002.38
2018-12-04T05:56:53.002Z,1002.42
2018-12-04T05:57:52.959Z,1002.40
2018-12-04T05:58:52.945Z,1002.54
2018-12-04T05:59:52.936Z,1002.49
2018-12-04T06:00:52.928Z,1002.57
2018-12-04T06:01:52.918Z,1002.61
2018-12-04T06:02:52.911Z,1002.61
2018-12-04T06:03:52.888Z,1002.66
2018-12-04T06:04:52.878Z,1002.66
2018-12-04T06:05:52.877Z,1002.70
2018-12-04T06:06:52.859Z,1002.75
2018-12-04T06:07:52.855Z,1002.79
2018-12-04T06:08:52.834Z,1002.85
2018-12-04T06:09:52.829Z,1002.87
2018-12-04T06:10:52.814Z,1002.84
2018-12-04T06:11:52.804Z,1002.86
2018-12-04T06:12:52.849Z,1002.87
2018-12-04T06:13:52.779Z,1002.92
2018-12-04T06:14:52.765Z,1002.95
2018-12-04T06:15:52.763Z,1003.06
2018-12-04T06:16:52.748Z,1003.03
2018-12-04T06:17:52.733Z,1003.08
2018-12-04T06:18:52.736Z,1003.09
2018-12-04T06:19:52.709Z,1003.19
2018-12-04T06:20:52.702Z,1003.22
2018-12-04T06:21:52.689Z,1003.20
2018-12-04T06:22:52.683Z,1003.19
2018-12-04T06:23:52.715Z,1003.25
2018-12-04T06:24:52.658Z,1003.30
2018-12-04T06:25:52.647Z,1003.31
2018-12-04T06:26:52.636Z,1003.31
2018-12-04T06:27:52.627Z,1003.35
2018-12-04T06:28:52.614Z,1003.35
2018-12-04T06:29:52.716Z,1003.38
2018-12-04T06:30:52.593Z,1003.40
2018-12-04T06:31:52.582Z,1003.40
2018-12-04T06:32:52.567Z,1003.42
2018-12-04T06:33:52.631Z,1003.49
2018-12-04T06:34:52.555Z,1003.52
2018-12-04T06:35:52.537Z,1003.53
2018-12-04T06:36:52.522Z,1003.59
2018-12-04T06:37:52.513Z,1003.59
2018-12-04T06:38:52.500Z,1003.66
2018-12-04T06:39:52.527Z,1003.64
2018-12-04T06:40:52.493Z,1003.69
2018-12-04T06:41:52.469Z,1003.73
2018-12-04T06:42:52.463Z,1003.83
2018-12-04T06:43:52.464Z,1003.82
2018-12-04T06:44:52.436Z,1003.80
2018-12-04T06:45:52.433Z,1003.85
2018-12-04T06:46:52.409Z,1003.87
2018-12-04T06:47:52.400Z,1003.92
2018-12-04T06:48:52.387Z,1003.91
2018-12-04T06:49:52.382Z,1004.03
2018-12-04T06:50:52.420Z,1003.98
2018-12-04T06:51:52.360Z,1004.05
2018-12-04T06:52:52.349Z,1004.07
2018-12-04T06:53:52.338Z,1004.09
2018-12-04T06:54:52.329Z,1004.14
2018-12-04T06:55:52.348Z,1004.19
2018-12-04T06:56:52.304Z,1004.20
2018-12-04T06:57:52.291Z,1004.21
2018-12-04T06:58:52.279Z,1004.22
2018-12-04T06:59:52.270Z,1004.27
2018-12-04T07:00:52.277Z,1004.30
2018-12-04T07:01:52.246Z,1004.41
2018-12-04T07:02:52.232Z,1004.41
2018-12-04T07:03:52.225Z,1004.42
2018-12-04T07:04:52.209Z,1004.50
2018-12-04T07:05:52.220Z,1004.46
2018-12-04T07:06:52.193Z,1004.57
2018-12-04T07:07:52.193Z,1004.56
2018-12-04T07:08:52.177Z,1004.58
2018-12-04T07:09:52.154Z,1004.58
2018-12-04T07:10:52.144Z,1004.65
2018-12-04T07:11:52.146Z,1004.64
2018-12-04T07:12:52.132Z,1004.67
2018-12-04T07:13:52.111Z,1004.68
2018-12-04T07:14:52.098Z,1004.76
2018-12-04T07:15:52.092Z,1004.72
2018-12-04T07:16:52.106Z,1004.80
2018-12-04T07:17:52.070Z,1004.91
2018-12-04T07:18:52.062Z,1004.92
2018-12-04T07:19:52.055Z,1004.95
2018-12-04T07:20:52.046Z,1004.92
2018-12-04T07:21:52.020Z,1004.99
2018-12-04T07:22:52.022Z,1004.94
2018-12-04T07:23:52.025Z,1005.01
2018-12-04T07:24:51.994Z,1005.02
2018-12-04T07:25:51.990Z,1005.05
2018-12-04T07:26:51.996Z,1005.10
2018-12-04T07:27:51.954Z,1005.13
2018-12-04T07:28:51.942Z,1005.13
2018-12-04T07:29:51.947Z,1005.15
2018-12-04T07:30:51.927Z,1005.21
2018-12-04T07:31:51.915Z,1005.22
2018-12-04T07:32:51.916Z,1005.26
2018-12-04T07:33:51.907Z,1005.27
2018-12-04T07:34:51.891Z,1005.34
2018-12-04T07:35:51.878Z,1005.36
2018-12-04T07:36:51.868Z,1005.29
2018-12-04T07:37:51.849Z,1005.37
2018-12-04T07:38:51.842Z,1005.35
2018-12-04T07:39:51.836Z,1005.37
2018-12-04T07:40:51.818Z,1005.41
2018-12-04T07:41:51.815Z,1005.45
2018-12-04T07:42:51.791Z,1005.41
2018-12-04T07:43:51.783Z,1005.51
2018-12-04T07:44:51.769Z,1005.57
2018-12-04T07:45:51.887Z,1005.64
2018-12-04T07:46:51.741Z,1005.58
2018-12-04T07:47:51.737Z,1005.67
2018-12-04T07:48:51.722Z,1005.70
2018-12-04T07:49:51.722Z,1005.75
2018-12-04T07:50:51.702Z,1005.73
2018-12-04T07:51:51.701Z,1005.75
2018-12-04T07:52:51.679Z,1005.80
2018-12-04T07:53:51.675Z,1005.82
2018-12-04T07:54:51.654Z,1005.87
2018-12-04T07:55:51.651Z,1005.90
2018-12-04T07:56:55.275Z,1006.01
2018-12-04T07:57:51.639Z,1005.97
2018-12-04T07:58:51.637Z,1005.99
2018-12-04T07:59:51.610Z,1006.02
2018-12-04T08:00:51.612Z,1005.97
2018-12-04T08:01:51.581Z,1006.00
2018-12-04T08:02:51.667Z,1006.07
2018-12-04T08:03:51.568Z,1006.08
2018-12-04T08:04:51.555Z,1006.11
2018-12-04T08:05:51.557Z,1006.22
2018-12-04T08:06:51.546Z,1006.20
2018-12-04T08:07:51.510Z,1006.28
2018-12-04T08:08:51.513Z,1006.26
2018-12-04T08:09:51.504Z,1006.35
2018-12-04T08:10:51.474Z,1006.28
2018-12-04T08:11:51.471Z,1006.34
2018-12-04T08:12:51.469Z,1006.39
2018-12-04T08:13:51.512Z,1006.46
2018-12-04T08:14:51.441Z,1006.46
2018-12-04T08:15:51.427Z,1006.40
2018-12-04T08:16:51.414Z,1006.50
2018-12-04T08:17:51.401Z,1006.46
2018-12-04T08:18:51.394Z,1006.47
2018-12-04T08:19:51.395Z,1006.43
2018-12-04T08:20:51.371Z,1006.58
2018-12-04T08:21:51.354Z,1006.59
2018-12-04T08:22:51.350Z,1006.57
2018-12-04T08:23:51.335Z,1006.58
2018-12-04T08:24:51.332Z,1006.60
2018-12-04T08:25:51.309Z,1006.63
2018-12-04T08:26:51.307Z,1006.69
2018-12-04T08:27:51.296Z,1006.70
2018-12-04T08:28:51.319Z,1006.64
2018-12-04T08:29:51.298Z,1006.65
2018-12-04T08:30:51.258Z,1006.72
2018-12-04T08:31:51.265Z,1006.75
2018-12-04T08:32:51.230Z,1006.79
2018-12-04T08:33:51.223Z,1006.85
2018-12-04T08:34:51.248Z,1006.82
2018-12-04T08:35:51.202Z,1006.85
2018-12-04T08:36:51.191Z,1006.89
2018-12-04T08:37:51.177Z,1006.93
2018-12-04T08:38:51.174Z,1006.92
2018-12-04T08:39:51.167Z,1006.95
2018-12-04T08:40:51.199Z,1006.97
2018-12-04T08:41:51.134Z,1007.02
2018-12-04T08:42:51.135Z,1007.02
2018-12-04T08:43:51.115Z,1007.06
2018-12-04T08:44:51.100Z,1007.11
2018-12-04T08:45:51.093Z,1007.09
2018-12-04T08:46:51.093Z,1007.13
2018-12-04T08:47:51.068Z,1007.17
2018-12-04T08:48:51.057Z,1007.17
2018-12-04T08:49:51.047Z,1007.21
2018-12-04T08:50:51.062Z,1007.22
2018-12-04T08:51:51.037Z,1007.22
2018-12-04T08:52:51.018Z,1007.25
2018-12-04T08:53:51.006Z,1007.25
2018-12-04T08:54:50.995Z,1007.31
2018-12-04T08:55:50.978Z,1007.33
2018-12-04T08:56:50.980Z,1007.36
2018-12-04T08:57:50.984Z,1007.38
2018-12-04T08:58:50.942Z,1007.37
2018-12-04T08:59:50.965Z,1007.42
2018-12-04T09:00:50.928Z,1007.47
2018-12-04T09:01:50.913Z,1007.46
2018-12-04T09:02:50.900Z,1007.53
2018-12-04T09:03:50.903Z,1007.53
2018-12-04T09:04:50.882Z,1007.52
2018-12-04T09:05:50.873Z,1007.58
2018-12-04T09:06:50.955Z,1007.57
2018-12-04T09:07:50.859Z,1007.60
2018-12-04T09:08:50.906Z,1007.63
2018-12-04T09:09:50.831Z,1007.68
2018-12-04T09:10:50.815Z,1007.76
2018-12-04T09:11:50.807Z,1007.77
2018-12-04T09:12:50.803Z,1007.78
2018-12-04T09:13:50.806Z,1007.81
2018-12-04T09:14:51.248Z,1007.79
2018-12-04T09:15:50.767Z,1007.85
2018-12-04T09:16:50.749Z,1007.92
2018-12-04T09:17:50.738Z,1007.94
2018-12-04T09:18:50.735Z,1007.97
2018-12-04T09:19:50.721Z,1008.00
2018-12-04T09:20:50.724Z,1007.96
2018-12-04T09:21:50.713Z,1008.00
2018-12-04T09:22:50.756Z,1007.99
2018-12-04T09:23:50.685Z,1008.05
2018-12-04T09:24:50.667Z,1008.08
2018-12-04T09:25:50.684Z,1008.16
2018-12-04T09:26:50.641Z,1008.22
2018-12-04T09:27:50.645Z,1008.10
2018-12-04T09:28:50.755Z,1008.19
2018-12-04T09:29:50.616Z,1008.22
2018-12-04T09:30:50.594Z,1008.21
2018-12-04T09:31:50.578Z,1008.15
2018-12-04T09:32:50.570Z,1008.18
2018-12-04T09:33:50.571Z,1008.20
2018-12-04T09:34:50.550Z,1008.20
2018-12-04T09:35:50.542Z,1008.29
2018-12-04T09:36:50.527Z,1008.24
2018-12-04T09:37:50.523Z,1008.21
2018-12-04T09:38:50.500Z,1008.27
2018-12-04T09:39:50.502Z,1008.34
2018-12-04T09:40:50.482Z,1008.27
2018-12-04T09:41:50.470Z,1008.28
2018-12-04T09:42:50.472Z,1008.36
2018-12-04T09:43:50.443Z,1008.36
2018-12-04T09:44:50.446Z,1008.33
2018-12-04T09:45:50.423Z,1008.31
2018-12-04T09:46:50.414Z,1008.36
2018-12-04T09:47:50.401Z,1008.41
2018-12-04T09:48:50.390Z,1008.38
2018-12-04T09:49:50.399Z,1008.40
2018-12-04T09:50:50.365Z,1008.37
2018-12-04T09:51:50.357Z,1008.40
2018-12-04T09:52:50.342Z,1008.33
2018-12-04T09:53:52.196Z,1008.42
2018-12-04T09:54:50.334Z,1008.42
2018-12-04T09:55:50.356Z,1008.45
2018-12-04T09:56:50.301Z,1008.44
2018-12-04T09:57:50.298Z,1008.47
2018-12-04T09:58:50.286Z,1008.48
2018-12-04T09:59:50.281Z,1008.50
2018-12-04T10:00:50.251Z,1008.49
2018-12-04T10:01:50.256Z,1008.60
2018-12-04T10:02:50.230Z,1008.60
2018-12-04T10:03:50.225Z,1008.56
2018-12-04T10:04:50.209Z,1008.57
2018-12-04T10:05:50.195Z,1008.54
2018-12-04T10:06:50.236Z,1008.59
2018-12-04T10:07:50.179Z,1008.61
2018-12-04T10:08:50.166Z,1008.58
2018-12-04T10:09:50.153Z,1008.62
2018-12-04T10:10:50.141Z,1008.58
2018-12-04T10:11:50.131Z,1008.62
2018-12-04T10:12:50.311Z,1008.67
2018-12-04T10:13:50.112Z,1008.59
2018-12-04T10:14:50.100Z,1008.60
2018-12-04T10:15:50.091Z,1008.64
2018-12-04T10:16:50.075Z,1008.75
2018-12-04T10:17:50.075Z,1008.74
2018-12-04T10:18:50.067Z,1008.72
2018-12-04T10:19:50.044Z,1008.72
2018-12-04T10:20:50.031Z,1008.68
2018-12-04T10:21:50.025Z,1008.71
2018-12-04T10:22:50.010Z,1008.69
2018-12-04T10:23:50.013Z,1008.76
2018-12-04T10:24:49.989Z,1008.75
2018-12-04T10:25:49.979Z,1008.75
2018-12-04T10:26:49.968Z,1008.83
2018-12-04T10:27:50.007Z,1008.91
2018-12-04T10:28:49.953Z,1008.87
2018-12-04T10:29:49.962Z,1008.87
2018-12-04T10:30:49.929Z,1008.96
2018-12-04T10:31:55.953Z,1008.90
2018-12-04T10:32:50.925Z,1008.96
2018-12-04T10:33:49.889Z,1008.98
2018-12-04T10:34:49.882Z,1008.93
2018-12-04T10:35:49.881Z,1008.99
2018-12-04T10:36:49.884Z,1008.96
2018-12-04T10:37:49.840Z,1009.05
2018-12-04T10:38:49.849Z,1009.00
2018-12-04T10:39:49.855Z,1009.06
2018-12-04T10:40:49.809Z,1009.07
2018-12-04T10:41:49.793Z,1009.13
2018-12-04T10:42:49.788Z,1009.12
2018-12-04T10:43:49.773Z,1009.14
2018-12-04T10:44:49.765Z,1009.15
2018-12-04T10:45:49.791Z,1009.15
2018-12-04T10:46:49.761Z,1009.22
2018-12-04T10:47:49.728Z,1009.20
2018-12-04T10:48:49.716Z,1009.22
2018-12-04T10:49:49.704Z,1009.22
2018-12-04T10:50:49.693Z,1009.23
2018-12-04T10:51:49.722Z,1009.22
2018-12-04T10:52:49.673Z,1009.25
2018-12-04T10:53:49.659Z,1009.22
2018-12-04T10:54:49.648Z,1009.32
2018-12-04T10:55:49.642Z,1009.29
2018-12-04T10:56:49.630Z,1009.36
2018-12-04T10:57:49.622Z,1009.32
2018-12-04T10:58:49.609Z,1009.31
2018-12-04T10:59:49.594Z,1009.25
2018-12-04T11:00:49.585Z,1009.30
2018-12-04T11:01:49.755Z,1009.35
2018-12-04T11:02:49.562Z,1009.35
2018-12-04T11:03:49.555Z,1009.34
2018-12-04T11:04:49.535Z,1009.30
2018-12-04T11:05:49.524Z,1009.36
2018-12-04T11:06:49.549Z,1009.36
2018-12-04T11:07:49.501Z,1009.38
2018-12-04T11:08:49.498Z,1009.37
2018-12-04T11:09:49.498Z,1009.41
2018-12-04T11:10:49.471Z,1009.47
2018-12-04T11:11:49.477Z,1009.45
2018-12-04T11:12:49.446Z,1009.51
2018-12-04T11:13:49.465Z,1009.54
2018-12-04T11:14:49.429Z,1009.49
2018-12-04T11:15:49.424Z,1009.58
2018-12-04T11:16:49.401Z,1009.54
2018-12-04T11:17:49.389Z,1009.55
2018-12-04T11:18:49.391Z,1009.62
2018-12-04T11:19:49.376Z,1009.56
2018-12-04T11:20:49.365Z,1009.63
2018-12-04T11:21:49.355Z,1009.67
2018-12-04T11:22:49.336Z,1009.59
2018-12-04T11:23:49.329Z,1009.57
2018-12-04T11:24:49.355Z,1009.59
2018-12-04T11:25:49.307Z,1009.65
2018-12-04T11:26:49.300Z,1009.57
2018-12-04T11:27:49.283Z,1009.67
2018-12-04T11:28:49.283Z,1009.60
2018-12-04T11:29:49.260Z,1009.65
2018-12-04T11:30:49.261Z,1009.73
2018-12-04T11:31:49.231Z,1009.70
2018-12-04T11:32:49.241Z,1009.70
2018-12-04T11:33:49.213Z,1009.75
2018-12-04T11:34:49.200Z,1009.75
2018-12-04T11:35:49.195Z,1009.72
2018-12-04T11:36:49.219Z,1009.74
2018-12-04T11:37:49.169Z,1009.76
2018-12-04T11:38:49.153Z,1009.80
2018-12-04T11:39:49.147Z,1009.88
2018-12-04T11:40:49.133Z,1009.86
2018-12-04T11:41:49.122Z,1009.94
2018-12-04T11:42:49.130Z,1009.87
2018-12-04T11:43:49.108Z,1009.95
2018-12-04T11:44:49.095Z,1009.97
2018-12-04T11:45:49.091Z,1010.03
2018-12-04T11:46:49.070Z,1009.97
2018-12-04T11:47:49.060Z,1009.99
2018-12-04T11:48:49.050Z,1010.07
2018-12-04T11:49:49.035Z,1010.05
2018-12-04T11:50:49.027Z,1010.13
2018-12-04T11:51:49.038Z,1010.12
2018-12-04T11:52:48.999Z,1010.12
2018-12-04T11:53:48.990Z,1010.15
2018-12-04T11:54:48.989Z,1010.21
2018-12-04T11:55:48.978Z,1010.21
2018-12-04T11:56:48.955Z,1010.20
2018-12-04T11:57:48.983Z,1010.23
2018-12-04T11:58:48.934Z,1010.18
2018-12-04T11:59:48.919Z,1010.29
2018-12-04T12:00:48.910Z,1010.24
2018-12-04T12:01:48.898Z,1010.26
2018-12-04T12:02:48.891Z,1010.28
2018-12-04T12:03:48.903Z,1010.29
2018-12-04T12:04:48.870Z,1010.34
2018-12-04T12:05:48.881Z,1010.36
2018-12-04T12:06:48.844Z,1010.39
2018-12-04T12:07:48.833Z,1010.38
2018-12-04T12:08:48.837Z,1010.41
2018-12-04T12:09:48.835Z,1010.39
2018-12-04T12:10:48.807Z,1010.40
2018-12-04T12:11:48.794Z,1010.46
2018-12-04T12:12:48.783Z,1010.50
2018-12-04T12:13:48.770Z,1010.53
2018-12-04T12:14:48.771Z,1010.44
2018-12-04T12:15:48.745Z,1010.43
2018-12-04T12:16:48.757Z,1010.45
2018-12-04T12:17:48.726Z,1010.58
2018-12-04T12:18:48.718Z,1010.59
2018-12-04T12:19:48.700Z,1010.46
2018-12-04T12:20:48.699Z,1010.48
2018-12-04T12:21:48.681Z,1010.52
2018-12-04T12:22:48.670Z,1010.54
2018-12-04T12:23:48.661Z,1010.59
2018-12-04T12:24:48.643Z,1010.59